Tina — WDC3702 — position and weather

sailwx.info

Track history (hours):
 
Tides and Currents Weather Stations Pressure Air Temp Water Temp Dewpoint Dewpoint Depression Visibility Wind Speed Wind Dir Waves Ship Positions

Tina

Owner: Wilmington Tug, Inc., New Castle, DE. More information available from US FCC via Universal Licensing System and Coast Guard Vessel Documentation Center.

Last reported at 2017-Oct-19 02:00 UTC. Time now 2017-Oct-19 02:19 UTC.
Position N 39°43' W 075°31'.

Length 20 m; draft 3.4 m.

Type: Tug. MMSI: 367012670.

Date/timePositionNaut miles runAvg speedWind from/ knotsBaromVisibWave heightAir tempDewpointWater temp
2017-Oct-19 02:00N 39°43' W 075°31'0 0.0
2017-Oct-19 01:30N 39°43' W 075°31'0 0.0
2017-Oct-19 01:00N 39°43' W 075°31'0 0.0
2017-Oct-19 00:30N 39°43' W 075°31'0 0.0
2017-Oct-19 00:00N 39°43' W 075°31'0 0.0
2017-Oct-18 23:30N 39°43' W 075°31'0 0.0
2017-Oct-18 23:00N 39°43' W 075°31'0 0.0
2017-Oct-18 22:30N 39°43' W 075°31'0 0.0
2017-Oct-18 22:00N 39°43' W 075°31'0 0.0
2017-Oct-18 21:30N 39°43' W 075°31'0 0.0
2017-Oct-18 21:00N 39°43' W 075°31'0 0.0
2017-Oct-18 20:30N 39°43' W 075°31'0 0.0
2017-Oct-18 20:00N 39°43' W 075°31'0 0.0
2017-Oct-18 19:30N 39°43' W 075°31'0 0.0
2017-Oct-18 19:00N 39°43' W 075°31'0 0.0
2017-Oct-18 18:30N 39°43' W 075°31'0 0.0
2017-Oct-18 18:00N 39°43' W 075°31'0 0.0
2017-Oct-18 17:30N 39°43' W 075°31'0 0.0
2017-Oct-18 17:00N 39°43' W 075°31'0 0.0
2017-Oct-18 16:30N 39°43' W 075°31'0 0.0
2017-Oct-18 16:00N 39°43' W 075°31'0 0.0
2017-Oct-18 15:30N 39°43' W 075°31'0 0.0
2017-Oct-18 15:00N 39°43' W 075°31'0 0.0
2017-Oct-18 14:00N 39°43' W 075°31'0 0.0
2017-Oct-18 13:30N 39°43' W 075°31'0 0.0
2017-Oct-18 13:00N 39°43' W 075°31'0 0.0
2017-Oct-18 12:30N 39°43' W 075°31'0 0.0
2017-Oct-18 12:00N 39°43' W 075°31'0 0.0
2017-Oct-18 11:30N 39°43' W 075°31'0 0.0
2017-Oct-18 11:00N 39°43' W 075°31'0 0.0
2017-Oct-18 10:30N 39°43' W 075°31'0 0.0
2017-Oct-18 10:01N 39°43' W 075°31'0 0.0
2017-Oct-18 09:30N 39°43' W 075°31'0 0.0
2017-Oct-18 09:00N 39°43' W 075°31'0 0.0
2017-Oct-18 08:30N 39°43' W 075°31'0 0.0
2017-Oct-18 08:00N 39°43' W 075°31'0 0.0
2017-Oct-18 07:30N 39°43' W 075°31'0 0.0
2017-Oct-18 07:00N 39°43' W 075°31'0 0.0
2017-Oct-18 06:30N 39°43' W 075°31'0 0.0
2017-Oct-18 06:00N 39°43' W 075°31'0 0.0
2017-Oct-18 05:30N 39°43' W 075°31'0 0.0
2017-Oct-18 05:00N 39°43' W 075°31'0 0.0
2017-Oct-18 04:30N 39°43' W 075°31'0 0.0
2017-Oct-18 04:00N 39°43' W 075°31'0 0.0
2017-Oct-18 03:30N 39°43' W 075°31'0 0.0
2017-Oct-18 03:00N 39°43' W 075°31'0 0.0
2017-Oct-18 02:30N 39°43' W 075°31'0 0.0
2017-Oct-18 02:00N 39°43' W 075°31'0 0.0
2017-Oct-18 01:31N 39°43' W 075°31'0 0.0
2017-Oct-18 01:00N 39°43' W 075°31'0 0.0
2017-Oct-18 00:30N 39°43' W 075°31'0 0.0
2017-Oct-18 00:00N 39°43' W 075°31'0 0.0
2017-Oct-17 23:30N 39°43' W 075°31'0 0.0
2017-Oct-17 23:00N 39°43' W 075°31'0 0.0
2017-Oct-17 22:30N 39°43' W 075°31'0 0.0
2017-Oct-17 22:00N 39°43' W 075°31'0 0.0
2017-Oct-17 21:30N 39°43' W 075°31'0 0.0
2017-Oct-17 21:00N 39°43' W 075°31'0 0.0
2017-Oct-17 20:30N 39°43' W 075°31'0 0.0
2017-Oct-17 20:00N 39°43' W 075°31'0 0.0
2017-Oct-17 19:30N 39°43' W 075°31'1 3.0
2017-Oct-17 19:00N 39°42' W 075°31'4 8.7
2017-Oct-17 18:30N 39°38' W 075°34'3 6.8
2017-Oct-17 18:00N 39°35' W 075°33'4 8.6
2017-Oct-17 17:30N 39°39' W 075°33'611.2
2017-Oct-17 17:00N 39°44' W 075°30'510.3
2017-Oct-17 16:30N 39°48' W 075°26'1 1.7
2017-Oct-17 16:00N 39°48' W 075°25'2 3.7
2017-Oct-17 15:30N 39°47' W 075°27'510.7
2017-Oct-17 15:00N 39°43' W 075°31'0 0.0
2017-Oct-17 14:30N 39°43' W 075°31'0 0.0
2017-Oct-17 14:00N 39°43' W 075°31'0 0.0
2017-Oct-17 13:30N 39°43' W 075°31'0 0.0
2017-Oct-17 13:00N 39°43' W 075°31'0 0.1
2017-Oct-17 12:30N 39°43' W 075°31'0 0.0
2017-Oct-17 12:00N 39°43' W 075°31'0 0.1
2017-Oct-17 11:30N 39°43' W 075°31'0 0.0
2017-Oct-17 11:00N 39°43' W 075°31'0 0.0
2017-Oct-17 10:30N 39°43' W 075°31'0 0.0
2017-Oct-17 10:00N 39°43' W 075°31'0 0.0
2017-Oct-17 09:30N 39°43' W 075°31'0 0.0
2017-Oct-17 09:00N 39°43' W 075°31'0 0.0
2017-Oct-17 08:30N 39°43' W 075°31'0 0.0
2017-Oct-17 08:00N 39°43' W 075°31'0 0.0
2017-Oct-17 07:30N 39°43' W 075°31'0 0.0
2017-Oct-17 07:00N 39°43' W 075°31'0 0.0
2017-Oct-17 06:30N 39°43' W 075°31'0 0.0
2017-Oct-17 06:00N 39°43' W 075°31'0 0.0
2017-Oct-17 05:30N 39°43' W 075°31'0 0.0
2017-Oct-17 05:00N 39°43' W 075°31'0 0.0
2017-Oct-17 04:30N 39°43' W 075°31'0 0.0
2017-Oct-17 04:00N 39°43' W 075°31'0 0.0
2017-Oct-17 03:30N 39°43' W 075°31'0 0.0
2017-Oct-17 03:00N 39°43' W 075°31'0 0.0
2017-Oct-17 02:30N 39°43' W 075°31'0 0.0
2017-Oct-17 02:00N 39°43' W 075°31'0 0.0
2017-Oct-17 01:30N 39°43' W 075°31'0 0.0
2017-Oct-17 01:00N 39°43' W 075°31'0 0.0
2017-Oct-17 00:30N 39°43' W 075°31'0 0.0
2017-Oct-17 00:00N 39°43' W 075°31'0 0.0
2017-Oct-16 23:30N 39°43' W 075°31'0 0.0
2017-Oct-16 23:00N 39°43' W 075°31'0 0.0
2017-Oct-16 22:30N 39°43' W 075°31'0 0.0
2017-Oct-16 22:00N 39°43' W 075°31'0 0.0
2017-Oct-16 21:30N 39°43' W 075°31'0 0.0
2017-Oct-16 21:00N 39°43' W 075°31'1 2.6
2017-Oct-16 20:30N 39°44' W 075°32'2 3.9
2017-Oct-16 20:00N 39°45' W 075°30'510.4
2017-Oct-16 19:30N 39°48' W 075°25'0 0.0
2017-Oct-16 19:00N 39°48' W 075°25'0 0.0
2017-Oct-16 18:30N 39°48' W 075°25'0 0.0
2017-Oct-16 18:00N 39°48' W 075°25'0 0.3
2017-Oct-16 17:31N 39°48' W 075°25'4 7.1
2017-Oct-16 17:00N 39°46' W 075°28'4 7.2
2017-Oct-16 16:30N 39°43' W 075°31'1 2.3
2017-Oct-16 16:00N 39°44' W 075°32'1 2.9
2017-Oct-16 15:30N 39°43' W 075°31'0 0.0
2017-Oct-16 15:00N 39°43' W 075°31'0 0.0
2017-Oct-16 14:00N 39°43' W 075°31'0 0.0
2017-Oct-16 13:30N 39°43' W 075°31'0 0.0
2017-Oct-16 13:00N 39°43' W 075°31'0 0.0
2017-Oct-16 12:30N 39°43' W 075°31'0 0.0
2017-Oct-16 12:00N 39°43' W 075°31'0 0.0
2017-Oct-16 11:30N 39°43' W 075°31'0 0.0
2017-Oct-16 11:00N 39°43' W 075°31'0 0.0
2017-Oct-16 10:30N 39°43' W 075°31'0 0.0
2017-Oct-16 10:00N 39°43' W 075°31'0 0.0
2017-Oct-16 09:30N 39°43' W 075°31'0 0.0
2017-Oct-16 09:00N 39°43' W 075°31'0 0.0
2017-Oct-16 08:30N 39°43' W 075°31'0 0.0
2017-Oct-16 08:00N 39°43' W 075°31'0 0.0
2017-Oct-16 07:30N 39°43' W 075°31'0 0.0
2017-Oct-16 07:00N 39°43' W 075°31'0 0.0
2017-Oct-16 06:30N 39°43' W 075°31'0 0.0
2017-Oct-16 06:00N 39°43' W 075°31'0 0.0
2017-Oct-16 05:30N 39°43' W 075°31'0 0.0
2017-Oct-16 05:00N 39°43' W 075°31'0 0.0
2017-Oct-16 04:30N 39°43' W 075°31'0 0.0
2017-Oct-16 04:00N 39°43' W 075°31'0 0.0
2017-Oct-16 03:30N 39°43' W 075°31'0 0.0
2017-Oct-16 03:00N 39°43' W 075°31'0 0.0
2017-Oct-16 02:30N 39°43' W 075°31'0 0.0
2017-Oct-16 02:00N 39°43' W 075°31'0 0.0
2017-Oct-16 01:30N 39°43' W 075°31'0 0.0
2017-Oct-16 01:00N 39°43' W 075°31'0 0.0
2017-Oct-16 00:30N 39°43' W 075°31'0 0.0
2017-Oct-16 00:00N 39°43' W 075°31'0 0.0
2017-Oct-15 23:30N 39°43' W 075°31'0 0.0
2017-Oct-15 23:00N 39°43' W 075°31'0 0.0
2017-Oct-15 22:30N 39°43' W 075°31'0 0.0
2017-Oct-15 22:00N 39°43' W 075°31'0 0.0
2017-Oct-15 21:30N 39°43' W 075°31'0 0.0
2017-Oct-15 21:00N 39°43' W 075°31'0 0.0
2017-Oct-15 20:30N 39°43' W 075°31'0 0.0
2017-Oct-15 20:00N 39°43' W 075°31'0 0.0
2017-Oct-15 19:30N 39°43' W 075°31'0 0.0
2017-Oct-15 19:00N 39°43' W 075°31'0 0.0
2017-Oct-15 18:30N 39°43' W 075°31'0 0.0
2017-Oct-15 18:00N 39°43' W 075°31'0 0.0
2017-Oct-15 17:30N 39°43' W 075°31'0 0.0
2017-Oct-15 17:00N 39°43' W 075°31'1 2.9
2017-Oct-15 16:30N 39°44' W 075°32'2 3.2
2017-Oct-15 16:00N 39°44' W 075°30'510.2
2017-Oct-15 15:30N 39°48' W 075°26'5 9.2
2017-Oct-15 15:00N 39°51' W 075°21'5 5.4
2017-Oct-15 14:01N 39°52' W 075°14'0 0.0
2017-Oct-15 13:31N 39°52' W 075°14'0 0.7
2017-Oct-15 13:01N 39°52' W 075°14'510.3
2017-Oct-15 12:30N 39°50' W 075°21'510.6
2017-Oct-15 12:00N 39°47' W 075°27'511.0
2017-Oct-15 11:30N 39°43' W 075°31'2 3.0
2017-Oct-15 11:00N 39°44' W 075°32'1 2.8
2017-Oct-15 10:30N 39°43' W 075°31'0 0.0
2017-Oct-15 10:00N 39°43' W 075°31'0 0.0
2017-Oct-15 09:30N 39°43' W 075°31'0 0.0
2017-Oct-15 09:00N 39°43' W 075°31'0 0.0
2017-Oct-15 08:30N 39°43' W 075°31'0 0.0
2017-Oct-15 08:00N 39°43' W 075°31'0 0.0
2017-Oct-15 07:30N 39°43' W 075°31'0 0.0
2017-Oct-15 07:00N 39°43' W 075°31'0 0.0
2017-Oct-15 06:30N 39°43' W 075°31'0 0.0
2017-Oct-15 06:00N 39°43' W 075°31'0 0.0
2017-Oct-15 05:30N 39°43' W 075°31'0 0.0
2017-Oct-15 05:00N 39°43' W 075°31'0 0.0
2017-Oct-15 04:30N 39°43' W 075°31'0 0.0
2017-Oct-15 04:00N 39°43' W 075°31'0 0.0
2017-Oct-15 03:30N 39°43' W 075°31'0 0.0
2017-Oct-15 03:00N 39°43' W 075°31'0 0.0
2017-Oct-15 02:30N 39°43' W 075°31'0 0.0
2017-Oct-15 02:00N 39°43' W 075°31'0 0.0
2017-Oct-15 01:30N 39°43' W 075°31'0 0.0
2017-Oct-15 01:00N 39°43' W 075°31'0 0.0
2017-Oct-15 00:30N 39°43' W 075°31'0 0.0
2017-Oct-15 00:00N 39°43' W 075°31'0 0.0
2017-Oct-14 23:30N 39°43' W 075°31'0 0.0
2017-Oct-14 23:00N 39°43' W 075°31'0 0.0
2017-Oct-14 22:30N 39°43' W 075°31'0 0.0
2017-Oct-14 22:00N 39°43' W 075°31'0 0.0
2017-Oct-14 21:30N 39°43' W 075°31'0 0.0
2017-Oct-14 21:00N 39°43' W 075°31'0 0.0
2017-Oct-14 20:30N 39°43' W 075°31'0 0.0
2017-Oct-14 20:00N 39°43' W 075°31'0 0.0
2017-Oct-14 19:30N 39°43' W 075°31'0 0.0
2017-Oct-14 19:00N 39°43' W 075°31'0 0.0
2017-Oct-14 18:30N 39°43' W 075°31'0 0.0
2017-Oct-14 18:00N 39°43' W 075°31'0 0.0
2017-Oct-14 17:30N 39°43' W 075°31'0 0.0
2017-Oct-14 17:00N 39°43' W 075°31'0 0.0
2017-Oct-14 16:30N 39°43' W 075°31'0 0.0
2017-Oct-14 16:00N 39°43' W 075°31'0 0.0
2017-Oct-14 15:30N 39°43' W 075°31'0 0.0
2017-Oct-14 15:00N 39°43' W 075°31'0 0.0
2017-Oct-14 14:30N 39°43' W 075°31'0 0.0
2017-Oct-14 14:00N 39°43' W 075°31'0 0.0
2017-Oct-14 13:30N 39°43' W 075°31'0 0.5
2017-Oct-14 13:00N 39°43' W 075°31'5 9.8
2017-Oct-14 12:30N 39°47' W 075°27'2 4.1
2017-Oct-14 12:00N 39°48' W 075°25'0 0.0
2017-Oct-14 11:30N 39°48' W 075°25'1 2.4
2017-Oct-14 11:00N 39°48' W 075°26'611.6
2017-Oct-14 10:30N 39°43' W 075°31'0 0.0
2017-Oct-14 10:00N 39°43' W 075°31'0 0.0
2017-Oct-14 09:30N 39°43' W 075°31'0 0.0
2017-Oct-14 09:00N 39°43' W 075°31'0 0.0
2017-Oct-14 08:30N 39°43' W 075°31'0 0.0
2017-Oct-14 08:00N 39°43' W 075°31'0 0.0
2017-Oct-14 07:30N 39°43' W 075°31'0 0.0
2017-Oct-14 07:00N 39°43' W 075°31'0 0.0
2017-Oct-14 06:30N 39°43' W 075°31'0 0.0
2017-Oct-14 06:00N 39°43' W 075°31'0 0.0
2017-Oct-14 05:30N 39°43' W 075°31'0 0.0
2017-Oct-14 05:00N 39°43' W 075°31'0 0.0
2017-Oct-14 04:30N 39°43' W 075°31'0 0.0
2017-Oct-14 04:00N 39°43' W 075°31'0 0.0
2017-Oct-14 03:30N 39°43' W 075°31'0 0.0
2017-Oct-14 02:31N 39°43' W 075°31'0 0.0
2017-Oct-14 02:30N 39°43' W 075°31'0 0.0
2017-Oct-14 02:00N 39°43' W 075°31'0 0.0
2017-Oct-14 01:28N 39°43' W 075°31'0 0.0
2017-Oct-14 01:01N 39°43' W 075°31'0 0.0
2017-Oct-14 00:30N 39°43' W 075°31'0 0.0
2017-Oct-14 00:00N 39°43' W 075°31'0 0.0
2017-Oct-13 23:30N 39°43' W 075°31'0 0.0
2017-Oct-13 23:00N 39°43' W 075°31'0 0.0
2017-Oct-13 22:30N 39°43' W 075°31'0 0.0
2017-Oct-13 22:00N 39°43' W 075°31'0 0.0
2017-Oct-13 21:30N 39°43' W 075°31'0 0.0
2017-Oct-13 21:00N 39°43' W 075°31'0 0.0
2017-Oct-13 20:30N 39°43' W 075°31'0 0.6
2017-Oct-13 20:00N 39°43' W 075°31'0 0.3
2017-Oct-13 19:30N 39°43' W 075°32'4 7.4
2017-Oct-13 19:00N 39°46' W 075°28'4 8.3
2017-Oct-13 18:31N 39°49' W 075°24'0 0.0
2017-Oct-13 18:01N 39°49' W 075°24'0 0.0
2017-Oct-13 17:30N 39°49' W 075°24'0 0.0
2017-Oct-13 17:00N 39°49' W 075°24'0 0.0
2017-Oct-13 16:30N 39°49' W 075°24'0 0.0
2017-Oct-13 16:00N 39°49' W 075°24'0 0.0
2017-Oct-13 15:31N 39°49' W 075°24'0 0.0
2017-Oct-13 15:01N 39°49' W 075°24'0 0.8
2017-Oct-13 14:30N 39°49' W 075°24'0 0.0
2017-Oct-13 14:00N 39°49' W 075°24'0 0.1
2017-Oct-13 13:31N 39°49' W 075°24'2 4.4
2017-Oct-13 13:00N 39°48' W 075°26'5 9.4
2017-Oct-13 12:30N 39°44' W 075°30'2 3.2
2017-Oct-13 12:01N 39°44' W 075°32'1 2.9
2017-Oct-13 11:30N 39°43' W 075°31'0 0.0
2017-Oct-13 11:01N 39°43' W 075°31'0 0.0
2017-Oct-13 10:30N 39°43' W 075°31'0 0.0
2017-Oct-13 10:01N 39°43' W 075°31'0 0.0
2017-Oct-13 09:31N 39°43' W 075°31'0 0.0
2017-Oct-13 09:00N 39°43' W 075°31'0 0.0
2017-Oct-13 08:31N 39°43' W 075°31'0 0.0
2017-Oct-13 08:00N 39°43' W 075°31'0 0.0
2017-Oct-13 07:31N 39°43' W 075°31'0 0.0
2017-Oct-13 07:01N 39°43' W 075°31'0 0.0
2017-Oct-13 06:31N 39°43' W 075°31'0 0.0
2017-Oct-13 06:00N 39°43' W 075°31'0 0.0
2017-Oct-13 05:31N 39°43' W 075°31'0 0.0
2017-Oct-13 05:00N 39°43' W 075°31'0 0.0
2017-Oct-13 04:31N 39°43' W 075°31'0 0.0
2017-Oct-13 04:01N 39°43' W 075°31'0 0.0
2017-Oct-13 03:31N 39°43' W 075°31'0 0.0
2017-Oct-13 03:01N 39°43' W 075°31'0 0.0
2017-Oct-13 02:31N 39°43' W 075°31'0 0.0
2017-Oct-13 02:01N 39°43' W 075°31'0 0.0
2017-Oct-13 01:31N 39°43' W 075°31'0 0.0
2017-Oct-13 01:01N 39°43' W 075°31'0 0.0
2017-Oct-13 00:31N 39°43' W 075°31'0 0.0
2017-Oct-13 00:01N 39°43' W 075°31'0 0.0
2017-Oct-12 23:30N 39°43' W 075°31'0 0.0
2017-Oct-12 23:01N 39°43' W 075°31'0 0.0
2017-Oct-12 22:30N 39°43' W 075°31'0 0.0
2017-Oct-12 22:01N 39°43' W 075°31'0 0.0
2017-Oct-12 21:31N 39°43' W 075°31'0 0.0
2017-Oct-12 21:01N 39°43' W 075°31'0 0.0
2017-Oct-12 20:31N 39°43' W 075°31'0 0.0
2017-Oct-12 20:01N 39°43' W 075°31'0 0.0
2017-Oct-12 19:31N 39°43' W 075°31'0 0.0
2017-Oct-12 19:01N 39°43' W 075°31'0 0.0
2017-Oct-12 18:31N 39°43' W 075°31'0 0.0
2017-Oct-12 18:00N 39°43' W 075°31'0 0.0
2017-Oct-12 17:31N 39°43' W 075°31'0 0.0
2017-Oct-12 17:00N 39°43' W 075°31'0 0.0
2017-Oct-12 16:31N 39°43' W 075°31'0 0.0
2017-Oct-12 16:00N 39°43' W 075°31'0 0.0
2017-Oct-12 15:30N 39°43' W 075°31'0 0.0
2017-Oct-12 15:01N 39°43' W 075°31'0 0.0
2017-Oct-12 14:30N 39°43' W 075°31'0 0.0
2017-Oct-12 14:01N 39°43' W 075°31'0 0.0
2017-Oct-12 13:30N 39°43' W 075°31'0 0.0
2017-Oct-12 13:00N 39°43' W 075°31'0 0.0
2017-Oct-12 12:30N 39°43' W 075°31'0 0.0
2017-Oct-12 12:01N 39°43' W 075°31'0 0.0
2017-Oct-12 11:31N 39°43' W 075°31'0 0.0
2017-Oct-12 11:01N 39°43' W 075°31'0 0.0
2017-Oct-12 10:31N 39°43' W 075°31'0 0.0
2017-Oct-12 10:01N 39°43' W 075°31'0 0.0
2017-Oct-12 09:30N 39°43' W 075°31'0 0.0
2017-Oct-12 09:01N 39°43' W 075°31'0 0.2
2017-Oct-12 08:31N 39°43' W 075°31'1 2.0
2017-Oct-12 08:00N 39°44' W 075°32'2 3.5
2017-Oct-12 07:31N 39°44' W 075°30'4 8.1
2017-Oct-12 07:01N 39°48' W 075°27'1 2.8
2017-Oct-12 06:31N 39°48' W 075°25'0 0.0
2017-Oct-12 06:00N 39°48' W 075°25'0 0.0
2017-Oct-12 05:31N 39°48' W 075°25'0 0.0
2017-Oct-12 05:00N 39°48' W 075°25'0 0.0
2017-Oct-12 04:31N 39°48' W 075°25'0 0.0
2017-Oct-12 04:01N 39°48' W 075°25'0 0.9
2017-Oct-12 03:31N 39°48' W 075°26'4 7.5
2017-Oct-12 03:01N 39°45' W 075°29'3 6.1
2017-Oct-12 02:30N 39°43' W 075°32'1 1.3
2017-Oct-12 02:00N 39°44' W 075°32'1 2.4
2017-Oct-12 01:30N 39°43' W 075°31'0 0.0
2017-Oct-12 01:01N 39°43' W 075°31'0 0.0
2017-Oct-12 00:31N 39°43' W 075°31'0 0.0
2017-Oct-12 00:00N 39°43' W 075°31'0 0.0
2017-Oct-11 23:30N 39°43' W 075°31'0 0.0
2017-Oct-11 23:01N 39°43' W 075°31'0 0.0
2017-Oct-11 22:30N 39°43' W 075°31'0 0.0
2017-Oct-11 22:01N 39°43' W 075°31'0 0.0
2017-Oct-11 21:30N 39°43' W 075°31'0 0.0
2017-Oct-11 21:01N 39°43' W 075°31'0 0.0
2017-Oct-11 20:30N 39°43' W 075°31'0 0.0
2017-Oct-11 20:00N 39°43' W 075°31'0 0.0
2017-Oct-11 19:31N 39°43' W 075°31'0 0.0
2017-Oct-11 19:01N 39°43' W 075°31'0 0.0
2017-Oct-11 18:31N 39°43' W 075°31'2 4.1
2017-Oct-11 18:01N 39°45' W 075°30'4 8.5
2017-Oct-11 17:31N 39°48' W 075°26'0 0.2
2017-Oct-11 17:01N 39°48' W 075°26'6 0.4
2017-Oct-11 00:00N 39°43' W 075°31'611.8
2017-Oct-10 23:31N 39°48' W 075°26'2 4.1
2017-Oct-10 23:01N 39°49' W 075°24'3 7.0
2017-Oct-10 22:31N 39°47' W 075°28'4 8.8
2017-Oct-10 22:01N 39°43' W 075°31'0 0.0
2017-Oct-10 21:31N 39°43' W 075°31'0 0.0
2017-Oct-10 21:01N 39°43' W 075°31'0 0.0
2017-Oct-10 20:31N 39°43' W 075°31'3 7.0
2017-Oct-10 20:01N 39°46' W 075°29'4 7.5
2017-Oct-10 19:31N 39°48' W 075°25'0 0.1
2017-Oct-10 19:00N 39°48' W 075°25'3 5.3
2017-Oct-10 18:31N 39°47' W 075°28'5 9.3
2017-Oct-10 18:01N 39°43' W 075°31'0 0.0
2017-Oct-10 17:30N 39°43' W 075°31'0 0.0
2017-Oct-10 17:00N 39°43' W 075°31'0 0.0
2017-Oct-10 16:31N 39°43' W 075°31'0 0.0
2017-Oct-10 16:00N 39°43' W 075°31'0 0.0
2017-Oct-10 15:31N 39°43' W 075°31'0 0.0
2017-Oct-10 15:01N 39°43' W 075°31'0 0.0
2017-Oct-10 14:00N 39°43' W 075°31'0 0.0
2017-Oct-10 13:30N 39°43' W 075°31'0 0.0
2017-Oct-10 13:00N 39°43' W 075°31'0 0.0
2017-Oct-10 12:30N 39°43' W 075°31'0 0.0
2017-Oct-10 12:00N 39°43' W 075°31'2 3.4
2017-Oct-10 11:30N 39°41' W 075°31'4 8.5
2017-Oct-10 11:00N 39°38' W 075°35'3 6.6
2017-Oct-10 10:31N 39°35' W 075°35'0 0.0
2017-Oct-10 10:00N 39°35' W 075°35'0 0.0
2017-Oct-10 09:31N 39°35' W 075°35'1 2.3
2017-Oct-10 09:00N 39°34' W 075°34'1 1.5
2017-Oct-10 08:31N 39°34' W 075°33'1 1.5
2017-Oct-10 08:00N 39°35' W 075°34'2 3.1
2017-Oct-10 07:30N 39°35' W 075°35'0 0.1
2017-Oct-10 07:00N 39°35' W 075°35'0 0.7
2017-Oct-10 06:30N 39°35' W 075°35'0 0.4
2017-Oct-10 06:00N 39°35' W 075°35'0 0.0
2017-Oct-10 05:30N 39°35' W 075°35'0 0.0
2017-Oct-10 05:00N 39°35' W 075°35'2 3.4
2017-Oct-10 04:30N 39°37' W 075°36'5 9.6
2017-Oct-10 04:01N 39°40' W 075°32'3 5.8
2017-Oct-10 03:30N 39°43' W 075°31'0 0.0
2017-Oct-10 03:01N 39°43' W 075°31'0 0.0
2017-Oct-10 02:31N 39°43' W 075°31'0 0.0
2017-Oct-10 02:01N 39°43' W 075°31'1 2.4
2017-Oct-10 01:30N 39°44' W 075°32'1 2.5
2017-Oct-10 01:00N 39°43' W 075°31'510.7
2017-Oct-10 00:31N 39°47' W 075°27'2 4.3
2017-Oct-10 00:00N 39°48' W 075°24'0 0.0
2017-Oct-09 23:31N 39°48' W 075°24'0 0.0
2017-Oct-09 23:01N 39°48' W 075°24'0 0.3
2017-Oct-09 22:31N 39°48' W 075°24'0 0.4
2017-Oct-09 22:01N 39°48' W 075°24'0 0.1
2017-Oct-09 21:31N 39°48' W 075°24'0 0.8
2017-Oct-09 21:01N 39°48' W 075°25'0 0.4
2017-Oct-09 20:31N 39°48' W 075°25'0 0.0
2017-Oct-09 20:01N 39°48' W 075°25'0 0.0
2017-Oct-09 19:31N 39°48' W 075°25'0 0.0
2017-Oct-09 19:01N 39°48' W 075°25'4 7.9
2017-Oct-09 18:31N 39°46' W 075°29'3 6.5
2017-Oct-09 18:00N 39°44' W 075°32'0 1.0
2017-Oct-09 17:30N 39°44' W 075°32'0 0.0
2017-Oct-09 17:01N 39°44' W 075°32'1 2.0
2017-Oct-09 16:31N 39°43' W 075°32'1 1.2
2017-Oct-09 16:01N 39°43' W 075°31'0 0.0
2017-Oct-09 15:30N 39°43' W 075°31'0 0.0
2017-Oct-09 15:00N 39°43' W 075°31'0 0.0
2017-Oct-09 14:30N 39°43' W 075°31'0 0.0
2017-Oct-09 14:00N 39°43' W 075°31'0 0.0
2017-Oct-09 13:31N 39°43' W 075°31'0 0.0
2017-Oct-09 13:01N 39°43' W 075°31'0 0.0
2017-Oct-09 12:31N 39°43' W 075°31'0 0.0
2017-Oct-09 12:01N 39°43' W 075°31'0 0.0
2017-Oct-09 11:31N 39°43' W 075°31'0 0.0
2017-Oct-09 11:01N 39°43' W 075°31'0 0.4
2017-Oct-09 10:31N 39°43' W 075°31'0 0.2
2017-Oct-09 10:01N 39°43' W 075°31'2 3.8
2017-Oct-09 09:30N 39°41' W 075°31'2 3.6
2017-Oct-09 09:00N 39°43' W 075°31'0 0.0
2017-Oct-09 08:30N 39°43' W 075°31'0 0.0
2017-Oct-09 08:00N 39°43' W 075°31'0 0.0
2017-Oct-09 07:30N 39°43' W 075°31'1 2.4
2017-Oct-09 07:00N 39°44' W 075°32'1 2.8
2017-Oct-09 06:30N 39°44' W 075°30'4 7.9
2017-Oct-09 06:00N 39°47' W 075°28'3 6.7
2017-Oct-09 05:30N 39°49' W 075°24'0 0.1
2017-Oct-09 05:01N 39°49' W 075°24'0 0.0
2017-Oct-09 04:30N 39°49' W 075°24'0 0.1
2017-Oct-09 04:00N 39°49' W 075°24'0 0.5
2017-Oct-09 03:30N 39°49' W 075°24'0 0.1
2017-Oct-09 03:00N 39°48' W 075°24'0 0.0
2017-Oct-09 02:31N 39°48' W 075°24'0 0.0
2017-Oct-09 02:00N 39°48' W 075°24'  
Track history (hours):
 
Tides and Currents Weather Stations Pressure Air Temp Water Temp Dewpoint Dewpoint Depression Visibility Wind Speed Wind Dir Waves Ship Positions

Tina

Owner: Wilmington Tug, Inc., New Castle, DE. More information available from US FCC via Universal Licensing System and Coast Guard Vessel Documentation Center.

Last reported at 2017-Oct-19 02:00 UTC. Time now 2017-Oct-19 02:19 UTC.
Position N 39°43' W 075°31'.

Length 20 m; draft 3.4 m.

Type: Tug. MMSI: 367012670.

Date/timePositionNaut miles runAvg speedWind from/ knotsBaromVisibWave heightAir tempDewpointWater temp
2017-Oct-19 02:00N 39°43' W 075°31'0 0.0
2017-Oct-19 01:30N 39°43' W 075°31'0 0.0
2017-Oct-19 01:00N 39°43' W 075°31'0 0.0
2017-Oct-19 00:30N 39°43' W 075°31'0 0.0
2017-Oct-19 00:00N 39°43' W 075°31'0 0.0
2017-Oct-18 23:30N 39°43' W 075°31'0 0.0
2017-Oct-18 23:00N 39°43' W 075°31'0 0.0
2017-Oct-18 22:30N 39°43' W 075°31'0 0.0
2017-Oct-18 22:00N 39°43' W 075°31'0 0.0
2017-Oct-18 21:30N 39°43' W 075°31'0 0.0
2017-Oct-18 21:00N 39°43' W 075°31'0 0.0
2017-Oct-18 20:30N 39°43' W 075°31'0 0.0
2017-Oct-18 20:00N 39°43' W 075°31'0 0.0
2017-Oct-18 19:30N 39°43' W 075°31'0 0.0
2017-Oct-18 19:00N 39°43' W 075°31'0 0.0
2017-Oct-18 18:30N 39°43' W 075°31'0 0.0
2017-Oct-18 18:00N 39°43' W 075°31'0 0.0
2017-Oct-18 17:30N 39°43' W 075°31'0 0.0
2017-Oct-18 17:00N 39°43' W 075°31'0 0.0
2017-Oct-18 16:30N 39°43' W 075°31'0 0.0
2017-Oct-18 16:00N 39°43' W 075°31'0 0.0
2017-Oct-18 15:30N 39°43' W 075°31'0 0.0
2017-Oct-18 15:00N 39°43' W 075°31'0 0.0
2017-Oct-18 14:00N 39°43' W 075°31'0 0.0
2017-Oct-18 13:30N 39°43' W 075°31'0 0.0
2017-Oct-18 13:00N 39°43' W 075°31'0 0.0
2017-Oct-18 12:30N 39°43' W 075°31'0 0.0
2017-Oct-18 12:00N 39°43' W 075°31'0 0.0
2017-Oct-18 11:30N 39°43' W 075°31'0 0.0
2017-Oct-18 11:00N 39°43' W 075°31'0 0.0
2017-Oct-18 10:30N 39°43' W 075°31'0 0.0
2017-Oct-18 10:01N 39°43' W 075°31'0 0.0
2017-Oct-18 09:30N 39°43' W 075°31'0 0.0
2017-Oct-18 09:00N 39°43' W 075°31'0 0.0
2017-Oct-18 08:30N 39°43' W 075°31'0 0.0
2017-Oct-18 08:00N 39°43' W 075°31'0 0.0
2017-Oct-18 07:30N 39°43' W 075°31'0 0.0
2017-Oct-18 07:00N 39°43' W 075°31'0 0.0
2017-Oct-18 06:30N 39°43' W 075°31'0 0.0
2017-Oct-18 06:00N 39°43' W 075°31'0 0.0
2017-Oct-18 05:30N 39°43' W 075°31'0 0.0
2017-Oct-18 05:00N 39°43' W 075°31'0 0.0
2017-Oct-18 04:30N 39°43' W 075°31'0 0.0
2017-Oct-18 04:00N 39°43' W 075°31'0 0.0
2017-Oct-18 03:30N 39°43' W 075°31'0 0.0
2017-Oct-18 03:00N 39°43' W 075°31'0 0.0
2017-Oct-18 02:30N 39°43' W 075°31'0 0.0
2017-Oct-18 02:00N 39°43' W 075°31'0 0.0
2017-Oct-18 01:31N 39°43' W 075°31'0 0.0
2017-Oct-18 01:00N 39°43' W 075°31'0 0.0
2017-Oct-18 00:30N 39°43' W 075°31'0 0.0
2017-Oct-18 00:00N 39°43' W 075°31'0 0.0
2017-Oct-17 23:30N 39°43' W 075°31'0 0.0
2017-Oct-17 23:00N 39°43' W 075°31'0 0.0
2017-Oct-17 22:30N 39°43' W 075°31'0 0.0
2017-Oct-17 22:00N 39°43' W 075°31'0 0.0
2017-Oct-17 21:30N 39°43' W 075°31'0 0.0
2017-Oct-17 21:00N 39°43' W 075°31'0 0.0
2017-Oct-17 20:30N 39°43' W 075°31'0 0.0
2017-Oct-17 20:00N 39°43' W 075°31'0 0.0
2017-Oct-17 19:30N 39°43' W 075°31'1 3.0
2017-Oct-17 19:00N 39°42' W 075°31'4 8.7
2017-Oct-17 18:30N 39°38' W 075°34'3 6.8
2017-Oct-17 18:00N 39°35' W 075°33'4 8.6
2017-Oct-17 17:30N 39°39' W 075°33'611.2
2017-Oct-17 17:00N 39°44' W 075°30'510.3
2017-Oct-17 16:30N 39°48' W 075°26'1 1.7
2017-Oct-17 16:00N 39°48' W 075°25'2 3.7
2017-Oct-17 15:30N 39°47' W 075°27'510.7
2017-Oct-17 15:00N 39°43' W 075°31'0 0.0
2017-Oct-17 14:30N 39°43' W 075°31'0 0.0
2017-Oct-17 14:00N 39°43' W 075°31'0 0.0
2017-Oct-17 13:30N 39°43' W 075°31'0 0.0
2017-Oct-17 13:00N 39°43' W 075°31'0 0.1
2017-Oct-17 12:30N 39°43' W 075°31'0 0.0
2017-Oct-17 12:00N 39°43' W 075°31'0 0.1
2017-Oct-17 11:30N 39°43' W 075°31'0 0.0
2017-Oct-17 11:00N 39°43' W 075°31'0 0.0
2017-Oct-17 10:30N 39°43' W 075°31'0 0.0
2017-Oct-17 10:00N 39°43' W 075°31'0 0.0
2017-Oct-17 09:30N 39°43' W 075°31'0 0.0
2017-Oct-17 09:00N 39°43' W 075°31'0 0.0
2017-Oct-17 08:30N 39°43' W 075°31'0 0.0
2017-Oct-17 08:00N 39°43' W 075°31'0 0.0
2017-Oct-17 07:30N 39°43' W 075°31'0 0.0
2017-Oct-17 07:00N 39°43' W 075°31'0 0.0
2017-Oct-17 06:30N 39°43' W 075°31'0 0.0
2017-Oct-17 06:00N 39°43' W 075°31'0 0.0
2017-Oct-17 05:30N 39°43' W 075°31'0 0.0
2017-Oct-17 05:00N 39°43' W 075°31'0 0.0
2017-Oct-17 04:30N 39°43' W 075°31'0 0.0
2017-Oct-17 04:00N 39°43' W 075°31'0 0.0
2017-Oct-17 03:30N 39°43' W 075°31'0 0.0
2017-Oct-17 03:00N 39°43' W 075°31'0 0.0
2017-Oct-17 02:30N 39°43' W 075°31'0 0.0
2017-Oct-17 02:00N 39°43' W 075°31'0 0.0
2017-Oct-17 01:30N 39°43' W 075°31'0 0.0
2017-Oct-17 01:00N 39°43' W 075°31'0 0.0
2017-Oct-17 00:30N 39°43' W 075°31'0 0.0
2017-Oct-17 00:00N 39°43' W 075°31'0 0.0
2017-Oct-16 23:30N 39°43' W 075°31'0 0.0
2017-Oct-16 23:00N 39°43' W 075°31'0 0.0
2017-Oct-16 22:30N 39°43' W 075°31'0 0.0
2017-Oct-16 22:00N 39°43' W 075°31'0 0.0
2017-Oct-16 21:30N 39°43' W 075°31'0 0.0
2017-Oct-16 21:00N 39°43' W 075°31'1 2.6
2017-Oct-16 20:30N 39°44' W 075°32'2 3.9
2017-Oct-16 20:00N 39°45' W 075°30'510.4
2017-Oct-16 19:30N 39°48' W 075°25'0 0.0
2017-Oct-16 19:00N 39°48' W 075°25'0 0.0
2017-Oct-16 18:30N 39°48' W 075°25'0 0.0
2017-Oct-16 18:00N 39°48' W 075°25'0 0.3
2017-Oct-16 17:31N 39°48' W 075°25'4 7.1
2017-Oct-16 17:00N 39°46' W 075°28'4 7.2
2017-Oct-16 16:30N 39°43' W 075°31'1 2.3
2017-Oct-16 16:00N 39°44' W 075°32'1 2.9
2017-Oct-16 15:30N 39°43' W 075°31'0 0.0
2017-Oct-16 15:00N 39°43' W 075°31'0 0.0
2017-Oct-16 14:00N 39°43' W 075°31'0 0.0
2017-Oct-16 13:30N 39°43' W 075°31'0 0.0
2017-Oct-16 13:00N 39°43' W 075°31'0 0.0
2017-Oct-16 12:30N 39°43' W 075°31'0 0.0
2017-Oct-16 12:00N 39°43' W 075°31'0 0.0
2017-Oct-16 11:30N 39°43' W 075°31'0 0.0
2017-Oct-16 11:00N 39°43' W 075°31'0 0.0
2017-Oct-16 10:30N 39°43' W 075°31'0 0.0
2017-Oct-16 10:00N 39°43' W 075°31'0 0.0
2017-Oct-16 09:30N 39°43' W 075°31'0 0.0
2017-Oct-16 09:00N 39°43' W 075°31'0 0.0
2017-Oct-16 08:30N 39°43' W 075°31'0 0.0
2017-Oct-16 08:00N 39°43' W 075°31'0 0.0
2017-Oct-16 07:30N 39°43' W 075°31'0 0.0
2017-Oct-16 07:00N 39°43' W 075°31'0 0.0
2017-Oct-16 06:30N 39°43' W 075°31'0 0.0
2017-Oct-16 06:00N 39°43' W 075°31'0 0.0
2017-Oct-16 05:30N 39°43' W 075°31'0 0.0
2017-Oct-16 05:00N 39°43' W 075°31'0 0.0
2017-Oct-16 04:30N 39°43' W 075°31'0 0.0
2017-Oct-16 04:00N 39°43' W 075°31'0 0.0
2017-Oct-16 03:30N 39°43' W 075°31'0 0.0
2017-Oct-16 03:00N 39°43' W 075°31'0 0.0
2017-Oct-16 02:30N 39°43' W 075°31'0 0.0
2017-Oct-16 02:00N 39°43' W 075°31'0 0.0
2017-Oct-16 01:30N 39°43' W 075°31'0 0.0
2017-Oct-16 01:00N 39°43' W 075°31'0 0.0
2017-Oct-16 00:30N 39°43' W 075°31'0 0.0
2017-Oct-16 00:00N 39°43' W 075°31'0 0.0
2017-Oct-15 23:30N 39°43' W 075°31'0 0.0
2017-Oct-15 23:00N 39°43' W 075°31'0 0.0
2017-Oct-15 22:30N 39°43' W 075°31'0 0.0
2017-Oct-15 22:00N 39°43' W 075°31'0 0.0
2017-Oct-15 21:30N 39°43' W 075°31'0 0.0
2017-Oct-15 21:00N 39°43' W 075°31'0 0.0
2017-Oct-15 20:30N 39°43' W 075°31'0 0.0
2017-Oct-15 20:00N 39°43' W 075°31'0 0.0
2017-Oct-15 19:30N 39°43' W 075°31'0 0.0
2017-Oct-15 19:00N 39°43' W 075°31'0 0.0
2017-Oct-15 18:30N 39°43' W 075°31'0 0.0
2017-Oct-15 18:00N 39°43' W 075°31'0 0.0
2017-Oct-15 17:30N 39°43' W 075°31'0 0.0
2017-Oct-15 17:00N 39°43' W 075°31'1 2.9
2017-Oct-15 16:30N 39°44' W 075°32'2 3.2
2017-Oct-15 16:00N 39°44' W 075°30'510.2
2017-Oct-15 15:30N 39°48' W 075°26'5 9.2
2017-Oct-15 15:00N 39°51' W 075°21'5 5.4
2017-Oct-15 14:01N 39°52' W 075°14'0 0.0
2017-Oct-15 13:31N 39°52' W 075°14'0 0.7
2017-Oct-15 13:01N 39°52' W 075°14'510.3
2017-Oct-15 12:30N 39°50' W 075°21'510.6
2017-Oct-15 12:00N 39°47' W 075°27'511.0
2017-Oct-15 11:30N 39°43' W 075°31'2 3.0
2017-Oct-15 11:00N 39°44' W 075°32'1 2.8
2017-Oct-15 10:30N 39°43' W 075°31'0 0.0
2017-Oct-15 10:00N 39°43' W 075°31'0 0.0
2017-Oct-15 09:30N 39°43' W 075°31'0 0.0
2017-Oct-15 09:00N 39°43' W 075°31'0 0.0
2017-Oct-15 08:30N 39°43' W 075°31'0 0.0
2017-Oct-15 08:00N 39°43' W 075°31'0 0.0
2017-Oct-15 07:30N 39°43' W 075°31'0 0.0
2017-Oct-15 07:00N 39°43' W 075°31'0 0.0
2017-Oct-15 06:30N 39°43' W 075°31'0 0.0
2017-Oct-15 06:00N 39°43' W 075°31'0 0.0
2017-Oct-15 05:30N 39°43' W 075°31'0 0.0
2017-Oct-15 05:00N 39°43' W 075°31'0 0.0
2017-Oct-15 04:30N 39°43' W 075°31'0 0.0
2017-Oct-15 04:00N 39°43' W 075°31'0 0.0
2017-Oct-15 03:30N 39°43' W 075°31'0 0.0
2017-Oct-15 03:00N 39°43' W 075°31'0 0.0
2017-Oct-15 02:30N 39°43' W 075°31'0 0.0
2017-Oct-15 02:00N 39°43' W 075°31'0 0.0
2017-Oct-15 01:30N 39°43' W 075°31'0 0.0
2017-Oct-15 01:00N 39°43' W 075°31'0 0.0
2017-Oct-15 00:30N 39°43' W 075°31'0 0.0
2017-Oct-15 00:00N 39°43' W 075°31'0 0.0
2017-Oct-14 23:30N 39°43' W 075°31'0 0.0
2017-Oct-14 23:00N 39°43' W 075°31'0 0.0
2017-Oct-14 22:30N 39°43' W 075°31'0 0.0
2017-Oct-14 22:00N 39°43' W 075°31'0 0.0
2017-Oct-14 21:30N 39°43' W 075°31'0 0.0
2017-Oct-14 21:00N 39°43' W 075°31'0 0.0
2017-Oct-14 20:30N 39°43' W 075°31'0 0.0
2017-Oct-14 20:00N 39°43' W 075°31'0 0.0
2017-Oct-14 19:30N 39°43' W 075°31'0 0.0
2017-Oct-14 19:00N 39°43' W 075°31'0 0.0
2017-Oct-14 18:30N 39°43' W 075°31'0 0.0
2017-Oct-14 18:00N 39°43' W 075°31'0 0.0
2017-Oct-14 17:30N 39°43' W 075°31'0 0.0
2017-Oct-14 17:00N 39°43' W 075°31'0 0.0
2017-Oct-14 16:30N 39°43' W 075°31'0 0.0
2017-Oct-14 16:00N 39°43' W 075°31'0 0.0
2017-Oct-14 15:30N 39°43' W 075°31'0 0.0
2017-Oct-14 15:00N 39°43' W 075°31'0 0.0
2017-Oct-14 14:30N 39°43' W 075°31'0 0.0
2017-Oct-14 14:00N 39°43' W 075°31'0 0.0
2017-Oct-14 13:30N 39°43' W 075°31'0 0.5
2017-Oct-14 13:00N 39°43' W 075°31'5 9.8
2017-Oct-14 12:30N 39°47' W 075°27'2 4.1
2017-Oct-14 12:00N 39°48' W 075°25'0 0.0
2017-Oct-14 11:30N 39°48' W 075°25'1 2.4
2017-Oct-14 11:00N 39°48' W 075°26'611.6
2017-Oct-14 10:30N 39°43' W 075°31'0 0.0
2017-Oct-14 10:00N 39°43' W 075°31'0 0.0
2017-Oct-14 09:30N 39°43' W 075°31'0 0.0
2017-Oct-14 09:00N 39°43' W 075°31'0 0.0
2017-Oct-14 08:30N 39°43' W 075°31'0 0.0
2017-Oct-14 08:00N 39°43' W 075°31'0 0.0
2017-Oct-14 07:30N 39°43' W 075°31'0 0.0
2017-Oct-14 07:00N 39°43' W 075°31'0 0.0
2017-Oct-14 06:30N 39°43' W 075°31'0 0.0
2017-Oct-14 06:00N 39°43' W 075°31'0 0.0
2017-Oct-14 05:30N 39°43' W 075°31'0 0.0
2017-Oct-14 05:00N 39°43' W 075°31'0 0.0
2017-Oct-14 04:30N 39°43' W 075°31'0 0.0
2017-Oct-14 04:00N 39°43' W 075°31'0 0.0
2017-Oct-14 03:30N 39°43' W 075°31'0 0.0
2017-Oct-14 02:31N 39°43' W 075°31'0 0.0
2017-Oct-14 02:30N 39°43' W 075°31'0 0.0
2017-Oct-14 02:00N 39°43' W 075°31'0 0.0
2017-Oct-14 01:28N 39°43' W 075°31'0 0.0
2017-Oct-14 01:01N 39°43' W 075°31'0 0.0
2017-Oct-14 00:30N 39°43' W 075°31'0 0.0
2017-Oct-14 00:00N 39°43' W 075°31'0 0.0
2017-Oct-13 23:30N 39°43' W 075°31'0 0.0
2017-Oct-13 23:00N 39°43' W 075°31'0 0.0
2017-Oct-13 22:30N 39°43' W 075°31'0 0.0
2017-Oct-13 22:00N 39°43' W 075°31'0 0.0
2017-Oct-13 21:30N 39°43' W 075°31'0 0.0
2017-Oct-13 21:00N 39°43' W 075°31'0 0.0
2017-Oct-13 20:30N 39°43' W 075°31'0 0.6
2017-Oct-13 20:00N 39°43' W 075°31'0 0.3
2017-Oct-13 19:30N 39°43' W 075°32'4 7.4
2017-Oct-13 19:00N 39°46' W 075°28'4 8.3
2017-Oct-13 18:31N 39°49' W 075°24'0 0.0
2017-Oct-13 18:01N 39°49' W 075°24'0 0.0
2017-Oct-13 17:30N 39°49' W 075°24'0 0.0
2017-Oct-13 17:00N 39°49' W 075°24'0 0.0
2017-Oct-13 16:30N 39°49' W 075°24'0 0.0
2017-Oct-13 16:00N 39°49' W 075°24'0 0.0
2017-Oct-13 15:31N 39°49' W 075°24'0 0.0
2017-Oct-13 15:01N 39°49' W 075°24'0 0.8
2017-Oct-13 14:30N 39°49' W 075°24'0 0.0
2017-Oct-13 14:00N 39°49' W 075°24'0 0.1
2017-Oct-13 13:31N 39°49' W 075°24'2 4.4
2017-Oct-13 13:00N 39°48' W 075°26'5 9.4
2017-Oct-13 12:30N 39°44' W 075°30'2 3.2
2017-Oct-13 12:01N 39°44' W 075°32'1 2.9
2017-Oct-13 11:30N 39°43' W 075°31'0 0.0
2017-Oct-13 11:01N 39°43' W 075°31'0 0.0
2017-Oct-13 10:30N 39°43' W 075°31'0 0.0
2017-Oct-13 10:01N 39°43' W 075°31'0 0.0
2017-Oct-13 09:31N 39°43' W 075°31'0 0.0
2017-Oct-13 09:00N 39°43' W 075°31'0 0.0
2017-Oct-13 08:31N 39°43' W 075°31'0 0.0
2017-Oct-13 08:00N 39°43' W 075°31'0 0.0
2017-Oct-13 07:31N 39°43' W 075°31'0 0.0
2017-Oct-13 07:01N 39°43' W 075°31'0 0.0
2017-Oct-13 06:31N 39°43' W 075°31'0 0.0
2017-Oct-13 06:00N 39°43' W 075°31'0 0.0
2017-Oct-13 05:31N 39°43' W 075°31'0 0.0
2017-Oct-13 05:00N 39°43' W 075°31'0 0.0
2017-Oct-13 04:31N 39°43' W 075°31'0 0.0
2017-Oct-13 04:01N 39°43' W 075°31'0 0.0
2017-Oct-13 03:31N 39°43' W 075°31'0 0.0
2017-Oct-13 03:01N 39°43' W 075°31'0 0.0
2017-Oct-13 02:31N 39°43' W 075°31'0 0.0
2017-Oct-13 02:01N 39°43' W 075°31'0 0.0
2017-Oct-13 01:31N 39°43' W 075°31'0 0.0
2017-Oct-13 01:01N 39°43' W 075°31'0 0.0
2017-Oct-13 00:31N 39°43' W 075°31'0 0.0
2017-Oct-13 00:01N 39°43' W 075°31'0 0.0
2017-Oct-12 23:30N 39°43' W 075°31'0 0.0
2017-Oct-12 23:01N 39°43' W 075°31'0 0.0
2017-Oct-12 22:30N 39°43' W 075°31'0 0.0
2017-Oct-12 22:01N 39°43' W 075°31'0 0.0
2017-Oct-12 21:31N 39°43' W 075°31'0 0.0
2017-Oct-12 21:01N 39°43' W 075°31'0 0.0
2017-Oct-12 20:31N 39°43' W 075°31'0 0.0
2017-Oct-12 20:01N 39°43' W 075°31'0 0.0
2017-Oct-12 19:31N 39°43' W 075°31'0 0.0
2017-Oct-12 19:01N 39°43' W 075°31'0 0.0
2017-Oct-12 18:31N 39°43' W 075°31'0 0.0
2017-Oct-12 18:00N 39°43' W 075°31'0 0.0
2017-Oct-12 17:31N 39°43' W 075°31'0 0.0
2017-Oct-12 17:00N 39°43' W 075°31'0 0.0
2017-Oct-12 16:31N 39°43' W 075°31'0 0.0
2017-Oct-12 16:00N 39°43' W 075°31'0 0.0
2017-Oct-12 15:30N 39°43' W 075°31'0 0.0
2017-Oct-12 15:01N 39°43' W 075°31'0 0.0
2017-Oct-12 14:30N 39°43' W 075°31'0 0.0
2017-Oct-12 14:01N 39°43' W 075°31'0 0.0
2017-Oct-12 13:30N 39°43' W 075°31'0 0.0
2017-Oct-12 13:00N 39°43' W 075°31'0 0.0
2017-Oct-12 12:30N 39°43' W 075°31'0 0.0
2017-Oct-12 12:01N 39°43' W 075°31'0 0.0
2017-Oct-12 11:31N 39°43' W 075°31'0 0.0
2017-Oct-12 11:01N 39°43' W 075°31'0 0.0
2017-Oct-12 10:31N 39°43' W 075°31'0 0.0
2017-Oct-12 10:01N 39°43' W 075°31'0 0.0
2017-Oct-12 09:30N 39°43' W 075°31'0 0.0
2017-Oct-12 09:01N 39°43' W 075°31'0 0.2
2017-Oct-12 08:31N 39°43' W 075°31'1 2.0
2017-Oct-12 08:00N 39°44' W 075°32'2 3.5
2017-Oct-12 07:31N 39°44' W 075°30'4 8.1
2017-Oct-12 07:01N 39°48' W 075°27'1 2.8
2017-Oct-12 06:31N 39°48' W 075°25'0 0.0
2017-Oct-12 06:00N 39°48' W 075°25'0 0.0
2017-Oct-12 05:31N 39°48' W 075°25'0 0.0
2017-Oct-12 05:00N 39°48' W 075°25'0 0.0
2017-Oct-12 04:31N 39°48' W 075°25'0 0.0
2017-Oct-12 04:01N 39°48' W 075°25'0 0.9
2017-Oct-12 03:31N 39°48' W 075°26'4 7.5
2017-Oct-12 03:01N 39°45' W 075°29'3 6.1
2017-Oct-12 02:30N 39°43' W 075°32'1 1.3
2017-Oct-12 02:00N 39°44' W 075°32'1 2.4
2017-Oct-12 01:30N 39°43' W 075°31'0 0.0
2017-Oct-12 01:01N 39°43' W 075°31'0 0.0
2017-Oct-12 00:31N 39°43' W 075°31'0 0.0
2017-Oct-12 00:00N 39°43' W 075°31'0 0.0
2017-Oct-11 23:30N 39°43' W 075°31'0 0.0
2017-Oct-11 23:01N 39°43' W 075°31'0 0.0
2017-Oct-11 22:30N 39°43' W 075°31'0 0.0
2017-Oct-11 22:01N 39°43' W 075°31'0 0.0
2017-Oct-11 21:30N 39°43' W 075°31'0 0.0
2017-Oct-11 21:01N 39°43' W 075°31'0 0.0
2017-Oct-11 20:30N 39°43' W 075°31'0 0.0
2017-Oct-11 20:00N 39°43' W 075°31'0 0.0
2017-Oct-11 19:31N 39°43' W 075°31'0 0.0
2017-Oct-11 19:01N 39°43' W 075°31'0 0.0
2017-Oct-11 18:31N 39°43' W 075°31'2 4.1
2017-Oct-11 18:01N 39°45' W 075°30'4 8.5
2017-Oct-11 17:31N 39°48' W 075°26'0 0.2
2017-Oct-11 17:01N 39°48' W 075°26'6 0.4
2017-Oct-11 00:00N 39°43' W 075°31'611.8
2017-Oct-10 23:31N 39°48' W 075°26'2 4.1
2017-Oct-10 23:01N 39°49' W 075°24'3 7.0
2017-Oct-10 22:31N 39°47' W 075°28'4 8.8
2017-Oct-10 22:01N 39°43' W 075°31'0 0.0
2017-Oct-10 21:31N 39°43' W 075°31'0 0.0
2017-Oct-10 21:01N 39°43' W 075°31'0 0.0
2017-Oct-10 20:31N 39°43' W 075°31'3 7.0
2017-Oct-10 20:01N 39°46' W 075°29'4 7.5
2017-Oct-10 19:31N 39°48' W 075°25'0 0.1
2017-Oct-10 19:00N 39°48' W 075°25'3 5.3
2017-Oct-10 18:31N 39°47' W 075°28'5 9.3
2017-Oct-10 18:01N 39°43' W 075°31'0 0.0
2017-Oct-10 17:30N 39°43' W 075°31'0 0.0
2017-Oct-10 17:00N 39°43' W 075°31'0 0.0
2017-Oct-10 16:31N 39°43' W 075°31'0 0.0
2017-Oct-10 16:00N 39°43' W 075°31'0 0.0
2017-Oct-10 15:31N 39°43' W 075°31'0 0.0
2017-Oct-10 15:01N 39°43' W 075°31'0 0.0
2017-Oct-10 14:00N 39°43' W 075°31'0 0.0
2017-Oct-10 13:30N 39°43' W 075°31'0 0.0
2017-Oct-10 13:00N 39°43' W 075°31'0 0.0
2017-Oct-10 12:30N 39°43' W 075°31'0 0.0
2017-Oct-10 12:00N 39°43' W 075°31'2 3.4
2017-Oct-10 11:30N 39°41' W 075°31'4 8.5
2017-Oct-10 11:00N 39°38' W 075°35'3 6.6
2017-Oct-10 10:31N 39°35' W 075°35'0 0.0
2017-Oct-10 10:00N 39°35' W 075°35'0 0.0
2017-Oct-10 09:31N 39°35' W 075°35'1 2.3
2017-Oct-10 09:00N 39°34' W 075°34'1 1.5
2017-Oct-10 08:31N 39°34' W 075°33'1 1.5
2017-Oct-10 08:00N 39°35' W 075°34'2 3.1
2017-Oct-10 07:30N 39°35' W 075°35'0 0.1
2017-Oct-10 07:00N 39°35' W 075°35'0 0.7
2017-Oct-10 06:30N 39°35' W 075°35'0 0.4
2017-Oct-10 06:00N 39°35' W 075°35'0 0.0
2017-Oct-10 05:30N 39°35' W 075°35'0 0.0
2017-Oct-10 05:00N 39°35' W 075°35'2 3.4
2017-Oct-10 04:30N 39°37' W 075°36'5 9.6
2017-Oct-10 04:01N 39°40' W 075°32'3 5.8
2017-Oct-10 03:30N 39°43' W 075°31'0 0.0
2017-Oct-10 03:01N 39°43' W 075°31'0 0.0
2017-Oct-10 02:31N 39°43' W 075°31'0 0.0
2017-Oct-10 02:01N 39°43' W 075°31'1 2.4
2017-Oct-10 01:30N 39°44' W 075°32'1 2.5
2017-Oct-10 01:00N 39°43' W 075°31'510.7
2017-Oct-10 00:31N 39°47' W 075°27'2 4.3
2017-Oct-10 00:00N 39°48' W 075°24'0 0.0
2017-Oct-09 23:31N 39°48' W 075°24'0 0.0
2017-Oct-09 23:01N 39°48' W 075°24'0 0.3
2017-Oct-09 22:31N 39°48' W 075°24'0 0.4
2017-Oct-09 22:01N 39°48' W 075°24'0 0.1
2017-Oct-09 21:31N 39°48' W 075°24'0 0.8
2017-Oct-09 21:01N 39°48' W 075°25'0 0.4
2017-Oct-09 20:31N 39°48' W 075°25'0 0.0
2017-Oct-09 20:01N 39°48' W 075°25'0 0.0
2017-Oct-09 19:31N 39°48' W 075°25'0 0.0
2017-Oct-09 19:01N 39°48' W 075°25'4 7.9
2017-Oct-09 18:31N 39°46' W 075°29'3 6.5
2017-Oct-09 18:00N 39°44' W 075°32'0 1.0
2017-Oct-09 17:30N 39°44' W 075°32'0 0.0
2017-Oct-09 17:01N 39°44' W 075°32'1 2.0
2017-Oct-09 16:31N 39°43' W 075°32'1 1.2
2017-Oct-09 16:01N 39°43' W 075°31'0 0.0
2017-Oct-09 15:30N 39°43' W 075°31'0 0.0
2017-Oct-09 15:00N 39°43' W 075°31'0 0.0
2017-Oct-09 14:30N 39°43' W 075°31'0 0.0
2017-Oct-09 14:00N 39°43' W 075°31'0 0.0
2017-Oct-09 13:31N 39°43' W 075°31'0 0.0
2017-Oct-09 13:01N 39°43' W 075°31'0 0.0
2017-Oct-09 12:31N 39°43' W 075°31'0 0.0
2017-Oct-09 12:01N 39°43' W 075°31'0 0.0
2017-Oct-09 11:31N 39°43' W 075°31'0 0.0
2017-Oct-09 11:01N 39°43' W 075°31'0 0.4
2017-Oct-09 10:31N 39°43' W 075°31'0 0.2
2017-Oct-09 10:01N 39°43' W 075°31'2 3.8
2017-Oct-09 09:30N 39°41' W 075°31'2 3.6
2017-Oct-09 09:00N 39°43' W 075°31'0 0.0
2017-Oct-09 08:30N 39°43' W 075°31'0 0.0
2017-Oct-09 08:00N 39°43' W 075°31'0 0.0
2017-Oct-09 07:30N 39°43' W 075°31'1 2.4
2017-Oct-09 07:00N 39°44' W 075°32'1 2.8
2017-Oct-09 06:30N 39°44' W 075°30'4 7.9
2017-Oct-09 06:00N 39°47' W 075°28'3 6.7
2017-Oct-09 05:30N 39°49' W 075°24'0 0.1
2017-Oct-09 05:01N 39°49' W 075°24'0 0.0
2017-Oct-09 04:30N 39°49' W 075°24'0 0.1
2017-Oct-09 04:00N 39°49' W 075°24'0 0.5
2017-Oct-09 03:30N 39°49' W 075°24'0 0.1
2017-Oct-09 03:00N 39°48' W 075°24'0 0.0
2017-Oct-09 02:31N 39°48' W 075°24'0 0.0
2017-Oct-09 02:00N 39°48' W 075°24'  

Dump ship's entire track history